createdAt,value
2018-10-01T00:00:48.951Z,3.90
2018-10-01T00:02:51.817Z,5.63
2018-10-01T00:04:54.706Z,6.70
2018-10-01T00:06:57.596Z,8.17
2018-10-01T00:09:01.245Z,4.00
2018-10-01T00:11:04.124Z,4.47
2018-10-01T00:13:08.165Z,8.40
2018-10-01T00:15:11.053Z,4.47
2018-10-01T00:17:13.931Z,8.03
2018-10-01T00:19:16.953Z,7.30
2018-10-01T00:21:40.973Z,5.80
2018-10-01T00:23:43.845Z,3.80
2018-10-01T00:25:46.749Z,4.07
2018-10-01T00:27:50.573Z,6.40
2018-10-01T00:29:55.112Z,9.23
2018-10-01T00:31:58.780Z,11.53
2018-10-01T00:34:01.653Z,4.20
2018-10-01T00:36:04.641Z,8.00
2018-10-01T00:38:07.617Z,11.83
2018-10-01T00:40:10.528Z,11.83
2018-10-01T00:42:14.151Z,3.43
2018-10-01T00:44:17.799Z,8.93
2018-10-01T00:46:20.679Z,4.47
2018-10-01T00:48:23.557Z,3.97
2018-10-01T00:50:26.641Z,12.03
2018-10-01T00:52:29.974Z,7.00
2018-10-01T00:54:33.648Z,17.30
2018-10-01T00:56:37.329Z,5.53
2018-10-01T00:58:40.205Z,4.17
2018-10-01T01:00:43.205Z,15.13
2018-10-01T01:02:46.290Z,10.17
2018-10-01T01:04:49.962Z,6.43
2018-10-01T01:06:53.648Z,3.37
2018-10-01T01:08:56.668Z,8.97
2018-10-01T01:10:59.605Z,10.30
2018-10-01T01:13:02.486Z,8.63
2018-10-01T01:15:05.556Z,3.97
2018-10-01T01:17:09.257Z,9.23
2018-10-01T01:19:12.939Z,3.50
2018-10-01T01:21:16.686Z,4.03
2018-10-01T01:23:19.609Z,6.23
2018-10-01T01:25:22.622Z,5.33
2018-10-01T01:27:26.344Z,11.43
2018-10-01T01:29:29.274Z,8.13
2018-10-01T01:31:32.202Z,8.87
2018-10-01T01:33:35.141Z,4.80
2018-10-01T01:35:38.078Z,11.20
2018-10-01T01:37:41.002Z,5.13
2018-10-01T01:39:44.145Z,5.00
2018-10-01T01:41:47.050Z,5.40
2018-10-01T01:43:49.967Z,2.70
2018-10-01T01:45:53.711Z,16.73
2018-10-01T01:47:56.648Z,3.63
2018-10-01T01:49:59.681Z,6.82
2018-10-01T01:52:02.665Z,4.60
2018-10-01T01:54:05.578Z,3.37
2018-10-01T01:56:08.510Z,10.63
2018-10-01T01:58:11.460Z,6.50
2018-10-01T02:00:15.157Z,16.53
2018-10-01T02:02:18.861Z,8.10
2018-10-01T02:04:22.726Z,3.87
2018-10-01T02:06:25.765Z,5.97
2018-10-01T02:08:29.441Z,5.40
2018-10-01T02:10:33.179Z,2.40
2018-10-01T02:12:36.109Z,6.47
2018-10-01T02:14:39.132Z,6.10
2018-10-01T02:16:43.050Z,6.70
2018-10-01T02:18:45.983Z,8.67
2018-10-01T02:20:48.900Z,8.97
2018-10-01T02:22:52.837Z,6.37
2018-10-01T02:24:55.771Z,9.00
2018-10-01T02:26:58.692Z,6.30
2018-10-01T02:29:01.789Z,4.37
2018-10-01T02:31:04.741Z,6.50
2018-10-01T02:33:08.050Z,5.68
2018-10-01T02:35:11.010Z,4.77
2018-10-01T02:37:14.709Z,3.73
2018-10-01T02:39:18.412Z,7.07
2018-10-01T02:41:21.497Z,6.33
2018-10-01T02:43:25.194Z,3.03
2018-10-01T02:45:28.871Z,3.77
2018-10-01T02:47:32.595Z,8.40
2018-10-01T02:49:35.558Z,4.47
2018-10-01T02:51:39.250Z,4.37
2018-10-01T02:53:48.022Z,6.90
2018-10-01T02:55:50.938Z,5.97
2018-10-01T02:57:53.960Z,4.30
2018-10-01T02:59:57.693Z,12.13
2018-10-01T03:02:00.609Z,7.93
2018-10-01T03:04:03.542Z,3.80
2018-10-01T03:06:06.490Z,4.90
2018-10-01T03:08:09.406Z,9.23
2018-10-01T03:10:12.389Z,5.63
2018-10-01T03:12:15.494Z,4.67
2018-10-01T03:14:18.409Z,8.50
2018-10-01T03:16:21.423Z,8.97
2018-10-01T03:18:25.133Z,5.67
2018-10-01T03:20:28.207Z,3.50
2018-10-01T03:22:31.908Z,5.40
2018-10-01T03:24:35.726Z,5.70
2018-10-01T03:26:38.645Z,5.40
2018-10-01T03:28:41.565Z,4.40
2018-10-01T03:30:45.290Z,8.27
2018-10-01T03:32:48.201Z,7.87
2018-10-01T03:34:51.118Z,5.20
2018-10-01T03:36:54.243Z,6.10
2018-10-01T03:38:57.165Z,6.60
2018-10-01T03:41:00.094Z,6.30
2018-10-01T03:43:03.043Z,6.63
2018-10-01T03:45:05.985Z,11.63
2018-10-01T03:47:08.933Z,7.00
2018-10-01T03:49:12.652Z,3.90
2018-10-01T03:51:15.603Z,7.10
2018-10-01T03:53:19.292Z,9.63
2018-10-01T03:55:22.505Z,9.70
2018-10-01T03:57:26.206Z,18.40
2018-10-01T03:59:29.877Z,9.43
2018-10-01T04:01:32.893Z,3.23
2018-10-01T04:03:36.596Z,3.10
2018-10-01T04:05:39.531Z,3.03
2018-10-01T04:07:42.487Z,5.27
2018-10-01T04:09:45.410Z,3.73
2018-10-01T04:11:48.340Z,11.13
2018-10-01T04:13:51.290Z,4.50
2018-10-01T04:15:54.999Z,12.20
2018-10-01T04:17:58.698Z,6.83
2018-10-01T04:20:02.615Z,6.73
2018-10-01T04:22:05.533Z,13.40
2018-10-01T04:24:08.458Z,4.80
2018-10-01T04:26:11.446Z,4.97
2018-10-01T04:28:15.188Z,8.13
2018-10-01T04:30:18.834Z,10.50
2018-10-01T04:32:22.674Z,10.60
2018-10-01T04:34:25.614Z,7.10
2018-10-01T04:36:29.308Z,11.00
2018-10-01T04:38:32.258Z,12.63
2018-10-01T04:40:35.298Z,14.82
2018-10-01T04:42:39.008Z,10.20
2018-10-01T04:44:42.857Z,5.93
2018-10-01T04:46:46.670Z,3.70
2018-10-01T04:48:50.231Z,11.80
2018-10-01T04:50:53.302Z,13.47
2018-10-01T04:52:56.490Z,5.07
2018-10-01T04:54:59.412Z,14.40
2018-10-01T04:57:02.357Z,8.60
2018-10-01T04:59:05.290Z,12.10
2018-10-01T05:01:08.215Z,9.30
2018-10-01T05:03:11.418Z,8.43
2018-10-01T05:05:14.350Z,15.30
2018-10-01T05:07:18.073Z,16.67
2018-10-01T05:09:21.788Z,6.30
2018-10-01T05:11:24.756Z,11.20
2018-10-01T05:13:28.440Z,10.03
2018-10-01T05:15:32.286Z,13.23
2018-10-01T05:17:35.214Z,9.70
2018-10-01T05:19:38.223Z,14.40
2018-10-01T05:21:41.957Z,8.00
2018-10-01T05:23:44.887Z,16.93
2018-10-01T05:25:48.590Z,12.43
2018-10-01T05:27:52.353Z,12.63
2018-10-01T05:29:55.401Z,10.63
2018-10-01T05:31:59.098Z,7.97
2018-10-01T05:34:02.838Z,9.13
2018-10-01T05:36:05.775Z,13.13
2018-10-01T05:38:09.457Z,10.77
2018-10-01T05:40:13.190Z,12.60
2018-10-01T05:42:16.121Z,10.30
2018-10-01T05:44:19.141Z,8.50
2018-10-01T05:46:22.909Z,13.47
2018-10-01T05:48:25.860Z,9.00
2018-10-01T05:50:28.793Z,17.40
2018-10-01T05:52:33.330Z,19.17
2018-10-01T05:54:36.213Z,9.37
2018-10-01T05:56:39.902Z,11.70
2018-10-01T05:58:43.646Z,8.43
2018-10-01T06:00:46.579Z,14.70
2018-10-01T06:02:50.596Z,13.20
2018-10-01T06:04:54.487Z,14.47
2018-10-01T06:06:57.362Z,17.70
2018-10-01T06:09:00.696Z,25.00
2018-10-01T06:11:03.651Z,16.80
2018-10-01T06:13:07.355Z,14.60
2018-10-01T06:15:11.120Z,18.40
2018-10-01T06:17:14.073Z,14.90
2018-10-01T06:19:17.005Z,12.27
2018-10-01T06:21:20.732Z,12.00
2018-10-01T06:23:23.683Z,22.80
2018-10-01T06:25:26.788Z,19.05
2018-10-01T06:27:30.477Z,17.50
2018-10-01T06:29:34.291Z,14.63
2018-10-01T06:31:37.974Z,14.50
2018-10-01T06:33:41.666Z,13.73
2018-10-01T06:35:44.630Z,22.90
2018-10-01T06:37:47.657Z,44.20
2018-10-01T06:39:51.355Z,22.53
2018-10-01T06:41:54.467Z,22.07
2018-10-01T06:43:57.286Z,22.03
2018-10-01T06:46:01.726Z,19.20
2018-10-01T06:48:05.541Z,17.83
2018-10-01T06:50:09.348Z,19.37
2018-10-01T06:52:12.302Z,13.80
2018-10-01T06:54:16.069Z,20.33
2018-10-01T06:56:18.998Z,25.40
2018-10-01T06:58:22.691Z,21.97
2018-10-01T07:00:26.512Z,28.10
2018-10-01T07:02:30.212Z,30.33
2018-10-01T07:04:33.909Z,18.73
2018-10-01T07:06:37.846Z,29.27
2018-10-01T07:08:40.849Z,22.00
2018-10-01T07:10:43.884Z,23.53
2018-10-01T07:12:46.873Z,24.23
2018-10-01T07:14:49.809Z,29.50
2018-10-01T07:16:52.858Z,21.37
2018-10-01T07:18:56.085Z,34.77
2018-10-01T07:20:59.117Z,24.50
2018-10-01T07:23:02.205Z,32.37
2018-10-01T07:25:05.817Z,19.30
2018-10-01T07:27:08.789Z,17.53
2018-10-01T07:29:11.731Z,34.00
2018-10-01T07:31:14.698Z,22.30
2018-10-01T07:33:17.790Z,23.07
2018-10-01T07:35:20.733Z,27.33
2018-10-01T07:37:23.710Z,25.00
2018-10-01T07:39:26.639Z,27.77
2018-10-01T07:41:29.562Z,25.40
2018-10-01T07:43:32.531Z,26.40
2018-10-01T07:45:36.337Z,46.13
2018-10-01T07:47:39.312Z,33.03
2018-10-01T07:49:43.043Z,19.80
2018-10-01T07:51:46.822Z,29.53
2018-10-01T07:53:49.781Z,27.17
2018-10-01T07:55:52.835Z,34.00
2018-10-01T07:57:55.761Z,27.07
2018-10-01T07:59:59.634Z,22.03
2018-10-01T08:02:02.609Z,26.30
2018-10-01T08:04:05.653Z,23.33
2018-10-01T08:06:08.590Z,34.60
2018-10-01T08:08:11.787Z,20.67
2018-10-01T08:10:14.800Z,33.13
2018-10-01T08:12:17.736Z,24.00
2018-10-01T08:14:20.734Z,29.57
2018-10-01T08:16:23.662Z,29.43
2018-10-01T08:18:26.625Z,34.40
2018-10-01T08:20:29.955Z,28.80
2018-10-01T08:22:32.899Z,35.53
2018-10-01T08:24:36.604Z,23.20
2018-10-01T08:26:39.634Z,29.83
2018-10-01T08:28:42.526Z,32.43
2018-10-01T08:30:45.553Z,34.50
2018-10-01T08:32:48.654Z,20.57
2018-10-01T08:34:51.586Z,22.90
2018-10-01T08:36:54.805Z,26.02
2018-10-01T08:38:57.903Z,39.03
2018-10-01T08:41:00.927Z,27.60
2018-10-01T08:43:03.844Z,33.73
2018-10-01T08:45:07.668Z,24.33
2018-10-01T08:47:10.682Z,19.53
2018-10-01T08:49:13.610Z,21.63
2018-10-01T08:51:17.387Z,23.50
2018-10-01T08:53:20.318Z,18.47
2018-10-01T08:55:23.321Z,21.60
2018-10-01T08:57:26.400Z,16.17
2018-10-01T08:59:29.484Z,28.13
2018-10-01T09:01:32.421Z,18.30
2018-10-01T09:03:36.166Z,26.43
2018-10-01T09:05:39.231Z,22.37
2018-10-01T09:07:43.033Z,17.30
2018-10-01T09:09:46.771Z,24.80
2018-10-01T09:11:49.818Z,13.40
2018-10-01T09:13:53.506Z,16.33
2018-10-01T09:15:57.246Z,15.33
2018-10-01T09:18:00.165Z,21.70
2018-10-01T09:20:03.141Z,13.90
2018-10-01T09:22:06.908Z,17.60
2018-10-01T09:24:09.829Z,11.60
2018-10-01T09:26:12.820Z,21.17
2018-10-01T09:28:15.774Z,15.67
2018-10-01T09:30:18.715Z,16.33
2018-10-01T09:32:22.443Z,16.00
2018-10-01T09:34:25.468Z,16.83
2018-10-01T09:36:28.492Z,9.07
2018-10-01T09:38:31.491Z,8.13
2018-10-01T09:40:34.648Z,16.03
2018-10-01T09:42:37.542Z,5.90
2018-10-01T09:44:41.239Z,8.87
2018-10-01T09:46:45.161Z,10.10
2018-10-01T09:48:48.085Z,9.33
2018-10-01T09:50:51.104Z,9.70
2018-10-01T09:52:54.837Z,13.93
2018-10-01T09:54:57.764Z,18.27
2018-10-01T09:57:01.459Z,10.87
2018-10-01T09:59:05.227Z,13.13
2018-10-01T10:01:08.145Z,9.60
2018-10-01T10:03:12.692Z,11.60
2018-10-01T10:05:16.417Z,7.70
2018-10-01T10:07:19.337Z,9.87
2018-10-01T10:09:22.269Z,8.60
2018-10-01T10:11:25.239Z,8.30
2018-10-01T10:13:28.904Z,12.73
2018-10-01T10:15:32.021Z,15.88
2018-10-01T10:17:35.730Z,6.30
2018-10-01T10:19:38.673Z,17.37
2018-10-01T10:21:41.597Z,7.63
2018-10-01T10:23:44.567Z,11.93
2018-10-01T10:25:48.282Z,7.90
2018-10-01T10:27:51.210Z,8.00
2018-10-01T10:29:54.190Z,5.27
2018-10-01T10:31:57.137Z,29.43
2018-10-01T10:34:00.189Z,11.27
2018-10-01T10:36:03.663Z,11.43
2018-10-01T10:38:06.727Z,5.90
2018-10-01T10:40:09.671Z,13.07
2018-10-01T10:42:12.770Z,12.67
2018-10-01T10:44:15.787Z,7.10
2018-10-01T10:46:18.634Z,8.07
2018-10-01T10:48:21.617Z,13.77
2018-10-01T10:50:24.582Z,3.77
2018-10-01T10:52:28.310Z,6.97
2018-10-01T10:54:31.336Z,6.20
2018-10-01T10:56:34.469Z,7.37
2018-10-01T10:58:38.146Z,9.10
2018-10-01T11:00:42.022Z,19.60
2018-10-01T11:02:45.727Z,4.70
2018-10-01T11:04:48.734Z,13.13
2018-10-01T11:06:52.542Z,4.00
2018-10-01T11:08:55.473Z,7.10
2018-10-01T11:10:58.502Z,2.20
2018-10-01T11:13:01.999Z,4.70
2018-10-01T11:15:05.878Z,13.17
2018-10-01T11:17:08.680Z,8.17
2018-10-01T11:19:11.834Z,11.93
2018-10-01T11:21:14.650Z,18.83
2018-10-01T11:23:18.329Z,3.40
2018-10-01T11:25:21.330Z,7.93
2018-10-01T11:27:25.199Z,17.87
2018-10-01T11:29:28.078Z,4.00
2018-10-01T11:31:31.069Z,16.73
2018-10-01T11:33:34.035Z,2.07
2018-10-01T11:35:36.949Z,5.53
2018-10-01T11:37:40.977Z,14.76
2018-10-01T11:39:44.004Z,8.50
2018-10-01T11:41:46.836Z,9.07
2018-10-01T11:43:50.566Z,2.33
2018-10-01T11:45:53.494Z,10.10
2018-10-01T11:47:57.198Z,6.00
2018-10-01T11:50:00.442Z,3.30
2018-10-01T11:52:03.366Z,4.83
2018-10-01T11:54:06.345Z,6.60
2018-10-01T11:56:09.381Z,9.70
2018-10-01T11:58:12.317Z,6.17
2018-10-01T12:00:16.010Z,5.57
2018-10-01T12:02:18.977Z,3.37
2018-10-01T12:04:23.414Z,3.63
2018-10-01T12:06:26.357Z,2.97
2018-10-01T12:08:29.318Z,5.87
2018-10-01T12:10:32.357Z,4.43
2018-10-01T12:12:35.970Z,8.70
2018-10-01T12:14:39.798Z,2.80
2018-10-01T12:16:42.722Z,7.23
2018-10-01T12:18:45.678Z,4.07
2018-10-01T12:20:48.733Z,2.37
2018-10-01T12:22:51.669Z,8.77
2018-10-01T12:24:54.596Z,2.23
2018-10-01T12:26:57.618Z,6.75
2018-10-01T12:29:00.571Z,5.47
2018-10-01T12:31:03.509Z,3.90
2018-10-01T12:33:06.459Z,4.60
2018-10-01T12:35:09.463Z,5.83
2018-10-01T12:37:13.822Z,3.70
2018-10-01T12:39:17.724Z,4.83
2018-10-01T12:41:21.358Z,4.57
2018-10-01T12:43:24.278Z,1.47
2018-10-01T12:45:27.272Z,5.80
2018-10-01T12:47:30.209Z,1.57
2018-10-01T12:49:33.117Z,2.00
2018-10-01T12:51:36.096Z,2.30
2018-10-01T12:53:39.012Z,4.40
2018-10-01T12:55:42.712Z,8.80
2018-10-01T12:57:46.508Z,5.33
2018-10-01T12:59:49.407Z,5.13
2018-10-01T13:01:52.618Z,4.82
2018-10-01T13:03:55.606Z,3.47
2018-10-01T13:05:58.526Z,4.30
2018-10-01T13:08:01.454Z,2.63
2018-10-01T13:10:04.414Z,7.13
2018-10-01T13:12:08.120Z,1.10
2018-10-01T13:14:11.826Z,1.17
2018-10-01T13:16:14.781Z,0.80
2018-10-01T13:18:17.861Z,0.80
2018-10-01T13:20:20.635Z,2.00
2018-10-01T13:22:23.618Z,1.47
2018-10-01T13:24:26.646Z,6.47
2018-10-01T13:26:29.514Z,2.10
2018-10-01T13:28:32.586Z,3.87
2018-10-01T13:30:36.303Z,2.10
2018-10-01T13:32:39.977Z,1.50
2018-10-01T13:34:42.965Z,2.50
2018-10-01T13:36:46.749Z,4.03
2018-10-01T13:38:50.375Z,0.97
2018-10-01T13:40:54.118Z,3.03
2018-10-01T13:42:57.046Z,1.40
2018-10-01T13:45:00.867Z,0.97
2018-10-01T13:47:04.617Z,2.10
2018-10-01T13:49:07.533Z,4.77
2018-10-01T13:51:11.218Z,2.93
2018-10-01T13:53:14.190Z,4.70
2018-10-01T13:55:17.113Z,1.53
2018-10-01T13:57:20.803Z,1.00
2018-10-01T13:59:25.245Z,1.13
2018-10-01T14:01:28.197Z,4.83
2018-10-01T14:03:31.109Z,0.93
2018-10-01T14:05:34.053Z,0.70
2018-10-01T14:07:37.007Z,3.27
2018-10-01T14:09:40.017Z,3.80
2018-10-01T14:11:44.486Z,4.40
2018-10-01T14:13:47.413Z,2.60
2018-10-01T14:15:50.431Z,3.43
2018-10-01T14:17:53.529Z,3.93
2018-10-01T14:19:56.633Z,1.00
2018-10-01T14:21:59.381Z,5.57
2018-10-01T14:24:03.097Z,1.93
2018-10-01T14:26:06.027Z,3.00
2018-10-01T14:28:08.961Z,2.17
2018-10-01T14:30:12.029Z,5.10
2018-10-01T14:32:14.959Z,1.70
2018-10-01T14:34:17.898Z,2.60
2018-10-01T14:36:21.814Z,6.00
2018-10-01T14:38:24.665Z,2.07
2018-10-01T14:40:28.359Z,1.53
2018-10-01T14:42:32.140Z,2.27
2018-10-01T14:44:35.054Z,1.00
2018-10-01T14:46:38.740Z,7.80
2018-10-01T14:48:42.685Z,1.58
2018-10-01T14:50:45.525Z,47.30
2018-10-01T14:52:49.967Z,5.20
2018-10-01T14:54:52.919Z,0.70
2018-10-01T14:56:55.907Z,5.43
2018-10-01T14:58:58.789Z,1.83
2018-10-01T15:01:02.593Z,2.40
2018-10-01T15:03:05.470Z,1.90
2018-10-01T15:05:09.165Z,1.87
2018-10-01T15:07:13.006Z,0.70
2018-10-01T15:09:15.930Z,1.73
2018-10-01T15:11:18.854Z,0.80
2018-10-01T15:13:22.577Z,0.80
2018-10-01T15:15:25.521Z,1.60
2018-10-01T15:17:29.202Z,1.97
2018-10-01T15:19:32.340Z,1.33
2018-10-01T15:21:35.261Z,1.87
2018-10-01T15:23:38.292Z,2.10
2018-10-01T15:25:41.358Z,1.27
2018-10-01T15:27:45.074Z,2.60
2018-10-01T15:29:48.159Z,0.70
2018-10-01T15:31:52.124Z,5.03
2018-10-01T15:33:55.065Z,0.50
2018-10-01T15:35:58.034Z,1.00
2018-10-01T15:38:00.941Z,0.60
2018-10-01T15:40:03.866Z,3.23
2018-10-01T15:42:06.829Z,1.20
2018-10-01T15:44:09.856Z,0.90
2018-10-01T15:46:12.732Z,2.10
2018-10-01T15:48:16.421Z,1.67
2018-10-01T15:50:19.365Z,0.60
2018-10-01T15:52:22.275Z,1.33
2018-10-01T15:54:26.822Z,2.00
2018-10-01T15:56:30.759Z,0.70
2018-10-01T15:58:33.666Z,0.60
2018-10-01T16:00:36.610Z,0.57
2018-10-01T16:02:39.607Z,0.87
2018-10-01T16:04:42.533Z,2.50
2018-10-01T16:06:46.259Z,2.33
2018-10-01T16:08:50.080Z,0.70
2018-10-01T16:10:52.992Z,1.13
2018-10-01T16:12:55.978Z,0.60
2018-10-01T16:14:59.137Z,0.73
2018-10-01T16:17:02.131Z,1.20
2018-10-01T16:19:05.181Z,0.70
2018-10-01T16:21:08.200Z,0.80
2018-10-01T16:23:11.124Z,2.43
2018-10-01T16:25:14.058Z,1.27
2018-10-01T16:27:17.026Z,1.27
2018-10-01T16:29:19.958Z,0.70
2018-10-01T16:31:22.955Z,0.60
2018-10-01T16:33:26.785Z,0.67
2018-10-01T16:35:29.723Z,0.87
2018-10-01T16:37:32.679Z,1.10
2018-10-01T16:39:35.768Z,1.83
2018-10-01T16:41:38.787Z,1.40
2018-10-01T16:43:41.714Z,0.77
2018-10-01T16:45:45.027Z,1.17
2018-10-01T16:47:47.979Z,0.90
2018-10-01T16:49:51.665Z,2.93
2018-10-01T16:51:55.394Z,3.50
2018-10-01T16:53:58.336Z,2.70
2018-10-01T16:56:01.257Z,0.60
2018-10-01T16:58:04.225Z,2.63
2018-10-01T17:00:07.153Z,2.50
2018-10-01T17:02:10.071Z,3.70
2018-10-01T17:04:13.824Z,5.00
2018-10-01T17:06:16.756Z,4.20
2018-10-01T17:08:20.434Z,1.80
2018-10-01T17:10:23.572Z,4.30
2018-10-01T17:12:26.490Z,3.30
2018-10-01T17:14:29.411Z,1.43
2018-10-01T17:16:34.002Z,5.57
2018-10-01T17:18:36.931Z,5.43
2018-10-01T17:20:39.867Z,2.80
2018-10-01T17:22:43.001Z,5.67
2018-10-01T17:24:45.920Z,2.73
2018-10-01T17:26:48.944Z,2.10
2018-10-01T17:28:52.750Z,17.87
2018-10-01T17:30:57.442Z,4.07
2018-10-01T17:33:00.367Z,7.00
2018-10-01T17:35:03.467Z,3.60
2018-10-01T17:37:06.395Z,2.73
2018-10-01T17:39:10.843Z,1.60
2018-10-01T17:41:14.582Z,2.90
2018-10-01T17:43:17.502Z,6.70
2018-10-01T17:45:21.197Z,10.37
2018-10-01T17:47:24.163Z,12.00
2018-10-01T17:49:27.071Z,6.90
2018-10-01T17:51:29.982Z,6.40
2018-10-01T17:53:33.586Z,7.07
2018-10-01T17:55:36.523Z,6.43
2018-10-01T17:57:40.961Z,5.50
2018-10-01T17:59:44.702Z,6.03
2018-10-01T18:01:47.747Z,6.80
2018-10-01T18:03:51.417Z,4.57
2018-10-01T18:05:54.396Z,8.63
2018-10-01T18:07:57.338Z,2.10
2018-10-01T18:10:00.257Z,5.57
2018-10-01T18:12:03.297Z,3.47
2018-10-01T18:14:06.225Z,4.33
2018-10-01T18:16:09.171Z,13.13
2018-10-01T18:18:12.310Z,8.10
2018-10-01T18:20:15.230Z,2.27
2018-10-01T18:22:18.191Z,8.50
2018-10-01T18:24:21.988Z,3.30
2018-10-01T18:26:24.875Z,9.70
2018-10-01T18:28:28.582Z,8.57
2018-10-01T18:30:31.532Z,7.03
2018-10-01T18:32:34.461Z,13.60
2018-10-01T18:34:37.392Z,5.80
2018-10-01T18:36:40.353Z,1.70
2018-10-01T18:38:43.264Z,4.80
2018-10-01T18:40:46.178Z,8.00
2018-10-01T18:42:49.266Z,7.00
2018-10-01T18:44:52.182Z,6.07
2018-10-01T18:46:55.102Z,4.43
2018-10-01T18:48:58.849Z,2.10
2018-10-01T18:51:01.800Z,4.57
2018-10-01T18:53:05.469Z,3.03
2018-10-01T18:55:08.425Z,3.10
2018-10-01T18:57:11.346Z,3.83
2018-10-01T18:59:15.032Z,2.67
2018-10-01T19:01:17.973Z,6.90
2018-10-01T19:03:20.910Z,15.07
2018-10-01T19:05:24.624Z,8.67
2018-10-01T19:07:28.364Z,5.70
2018-10-01T19:09:31.277Z,4.50
2018-10-01T19:11:34.293Z,4.00
2018-10-01T19:13:37.374Z,3.63
2018-10-01T19:15:40.324Z,3.07
2018-10-01T19:17:43.288Z,5.03
2018-10-01T19:19:46.425Z,5.00
2018-10-01T19:21:50.228Z,5.30
2018-10-01T19:23:53.990Z,4.53
2018-10-01T19:25:56.979Z,3.77
2018-10-01T19:27:59.869Z,3.27
2018-10-01T19:30:02.906Z,7.93
2018-10-01T19:32:05.782Z,6.93
2018-10-01T19:34:08.742Z,4.10
2018-10-01T19:36:12.524Z,4.87
2018-10-01T19:38:15.527Z,4.40
2018-10-01T19:40:19.386Z,6.00
2018-10-01T19:42:22.384Z,2.10
2018-10-01T19:44:25.508Z,9.20
2018-10-01T19:46:29.212Z,10.90
2018-10-01T19:48:33.007Z,6.33
2018-10-01T19:50:36.761Z,4.43
2018-10-01T19:52:39.791Z,4.53
2018-10-01T19:54:42.713Z,3.20
2018-10-01T19:56:45.682Z,5.33
2018-10-01T19:58:48.610Z,2.00
2018-10-01T20:00:52.306Z,4.90
2018-10-01T20:02:55.362Z,14.30
2018-10-01T20:04:58.329Z,7.40
2018-10-01T20:07:01.287Z,3.57
2018-10-01T20:09:05.060Z,2.57
2018-10-01T20:11:08.028Z,6.30
2018-10-01T20:13:10.906Z,7.20
2018-10-01T20:15:14.086Z,2.87
2018-10-01T20:17:17.053Z,8.53
2018-10-01T20:19:20.705Z,5.87
2018-10-01T20:21:24.539Z,3.90
2018-10-01T20:23:27.461Z,5.00
2018-10-01T20:25:30.486Z,9.50
2018-10-01T20:27:34.247Z,3.80
2018-10-01T20:29:37.196Z,3.03
2018-10-01T20:31:40.123Z,4.83
2018-10-01T20:33:43.876Z,5.45
2018-10-01T20:35:46.832Z,4.33
2018-10-01T20:37:49.811Z,9.70
2018-10-01T20:39:52.938Z,4.97
2018-10-01T20:41:55.926Z,4.23
2018-10-01T20:43:58.873Z,10.33
2018-10-01T20:46:01.798Z,1.80
2018-10-01T20:48:04.782Z,4.33
2018-10-01T20:50:07.691Z,1.27
2018-10-01T20:52:10.656Z,4.00
2018-10-01T20:54:13.582Z,2.00
2018-10-01T20:56:17.347Z,4.73
2018-10-01T20:58:20.405Z,2.97
2018-10-01T21:00:23.327Z,3.13
2018-10-01T21:02:27.145Z,4.73
2018-10-01T21:04:30.794Z,6.50
2018-10-01T21:06:33.734Z,9.07
2018-10-01T21:08:36.716Z,2.20
2018-10-01T21:10:39.653Z,3.83
2018-10-01T21:12:42.680Z,4.83
2018-10-01T21:14:46.383Z,3.50
2018-10-01T21:16:50.198Z,4.27
2018-10-01T21:18:53.134Z,6.97
2018-10-01T21:20:56.538Z,4.97
2018-10-01T21:22:59.488Z,5.20
2018-10-01T21:25:02.412Z,11.33
2018-10-01T21:27:06.093Z,2.60
2018-10-01T21:29:09.041Z,3.00
2018-10-01T21:31:11.957Z,5.17
2018-10-01T21:33:14.969Z,3.80
2018-10-01T21:35:18.889Z,17.10
2018-10-01T21:37:21.819Z,5.53
2018-10-01T21:39:24.786Z,9.10
2018-10-01T21:41:27.845Z,9.57
2018-10-01T21:43:30.766Z,3.23
2018-10-01T21:45:33.717Z,7.00
2018-10-01T21:47:36.790Z,2.87
2018-10-01T21:49:39.706Z,6.60
2018-10-01T21:51:42.635Z,5.83
2018-10-01T21:53:46.357Z,10.70
2018-10-01T21:55:49.272Z,3.30
2018-10-01T21:57:52.186Z,1.43
2018-10-01T21:59:56.006Z,6.43
2018-10-01T22:01:59.689Z,3.57
2018-10-01T22:04:03.377Z,7.70
2018-10-01T22:06:06.385Z,7.07
2018-10-01T22:08:10.074Z,8.67
2018-10-01T22:10:13.762Z,8.33
2018-10-01T22:12:16.743Z,6.87
2018-10-01T22:14:19.680Z,3.00
2018-10-01T22:16:22.609Z,7.20
2018-10-01T22:18:25.717Z,6.65
2018-10-01T22:20:29.398Z,6.93
2018-10-01T22:22:32.320Z,5.23
2018-10-01T22:24:35.297Z,4.83
2018-10-01T22:26:38.209Z,6.10
2018-10-01T22:28:41.154Z,7.10
2018-10-01T22:30:44.127Z,10.97
2018-10-01T22:32:47.831Z,6.63
2018-10-01T22:34:51.521Z,2.07
2018-10-01T22:36:55.705Z,2.43
2018-10-01T22:38:58.629Z,2.50
2018-10-01T22:41:01.549Z,8.17
2018-10-01T22:43:04.507Z,4.63
2018-10-01T22:45:07.447Z,6.80
2018-10-01T22:47:11.134Z,6.33
2018-10-01T22:49:14.162Z,2.97
2018-10-01T22:51:17.113Z,2.97
2018-10-01T22:53:20.800Z,8.17
2018-10-01T22:55:23.919Z,15.63
2018-10-01T22:57:26.837Z,4.63
2018-10-01T22:59:29.757Z,9.13
2018-10-01T23:01:32.757Z,8.53
2018-10-01T23:03:36.442Z,6.63
2018-10-01T23:05:39.358Z,5.00
2018-10-01T23:07:42.447Z,1.73
2018-10-01T23:09:45.373Z,7.60
2018-10-01T23:11:48.297Z,1.70
2018-10-01T23:13:52.025Z,5.00
2018-10-01T23:15:54.944Z,3.93
2018-10-01T23:17:57.868Z,7.33
2018-10-01T23:20:00.841Z,2.60
2018-10-01T23:22:04.529Z,11.30
2018-10-01T23:24:08.210Z,9.80
2018-10-01T23:26:11.201Z,5.70
2018-10-01T23:28:14.885Z,2.97
2018-10-01T23:30:17.804Z,9.63
2018-10-01T23:32:21.626Z,5.60
2018-10-01T23:34:24.477Z,11.53
2018-10-01T23:36:28.174Z,4.03
2018-10-01T23:38:31.224Z,12.67
2018-10-01T23:40:34.845Z,4.77
2018-10-01T23:42:37.851Z,2.70
2018-10-01T23:44:41.557Z,1.37
2018-10-01T23:46:45.236Z,6.70
2018-10-01T23:48:48.166Z,3.07
2018-10-01T23:50:51.104Z,3.63
2018-10-01T23:52:54.790Z,9.60
2018-10-01T23:54:57.744Z,11.40
2018-10-01T23:57:00.717Z,9.87
2018-10-01T23:59:03.636Z,2.20
